Time;durP1;ratioP1;P1;durP2;ratioP2;P2;SDS_P1;SDS_P2;PMS_P1;PMS_P2;Temp;Humidity;BMP_temperature;BMP_pressure;BME280_temperature;BME280_humidity;BME280_pressure;Samples;Min_cycle;Max_cycle;Signal;HPM_P1;HPM_P2
2022/03/07 00:15:30;435685.00;1.45;751.16;96185.00;0.32;166.99;;;;;3.80;1.00;;;;;;2258932;61;1956;-87
2022/03/07 00:52:39;1573168.00;5.24;2781.57;57906.00;0.19;100.86;;;;;3.50;1.00;;;;;;2258957;61;1303;-86
2022/03/07 01:20:06;933212.00;3.11;1614.53;47075.00;0.16;82.13;;;;;2.20;1.00;;;;;;2527676;55;3622;31
2022/03/07 01:25:19;218294.00;0.73;377.41;0.00;0.00;0.62;;;;;2.00;1.00;;;;;;2522956;40;3556;31
2022/03/07 02:05:11;515007.00;1.72;887.67;31292.00;0.10;54.82;;;;;2.40;1.00;;;;;;2518628;39;3546;31
2022/03/07 02:19:58;99379.00;0.33;172.50;0.00;0.00;0.62;;;;;1.50;1.00;;;;;;2517343;39;3651;31
2022/03/07 02:34:46;117424.00;0.39;203.64;0.00;0.00;0.62;;;;;1.70;1.00;;;;;;2347091;40;3555;-80
2022/03/07 02:37:13;663710.00;2.21;1144.36;0.00;0.00;0.62;;;;;1.80;1.00;;;;;;2277067;61;1147;-81
2022/03/07 02:39:40;650445.00;2.17;1121.41;0.00;0.00;0.62;;;;;1.70;1.00;;;;;;2283941;61;1139;-81
2022/03/07 02:42:08;643073.00;2.14;1108.65;0.00;0.00;0.62;;;;;1.90;1.00;;;;;;2283907;61;1223;-81
2022/03/07 02:44:34;658935.00;2.20;1136.10;0.00;0.00;0.62;;;;;1.90;1.00;;;;;;2283966;61;1923;-81
2022/03/07 02:47:01;687755.00;2.29;1186.01;0.00;0.00;0.62;;;;;1.80;1.00;;;;;;2283888;61;1197;-81
2022/03/07 02:49:28;622837.00;2.08;1073.67;0.00;0.00;0.62;;;;;1.60;1.00;;;;;;2279569;61;1226;-81
2022/03/07 02:51:56;638662.00;2.13;1101.03;0.00;0.00;0.62;;;;;1.60;1.00;;;;;;2274626;61;1103;-80
2022/03/07 02:54:23;644008.00;2.15;1110.27;0.00;0.00;0.62;;;;;1.40;1.00;;;;;;2274649;61;1312;-80
2022/03/07 02:56:50;678664.00;2.26;1170.26;0.00;0.00;0.62;;;;;1.40;1.00;;;;;;2274935;61;1132;-81
2022/03/07 02:59:17;499771.00;1.67;861.43;0.00;0.00;0.62;;;;;1.60;1.00;;;;;;2275108;61;1199;-81
2022/03/07 03:01:44;664271.00;2.21;1145.33;0.00;0.00;0.62;;;;;1.90;1.00;;;;;;2274667;61;1407;-81
2022/03/07 03:04:11;545454.00;1.82;940.12;0.00;0.00;0.62;;;;;1.90;1.00;;;;;;2274532;61;1923;-80
2022/03/07 03:06:38;889945.00;2.97;1538.47;0.00;0.00;0.62;;;;;1.80;1.00;;;;;;2274544;61;1154;-81
2022/03/07 03:09:06;900907.00;3.00;1557.71;7428.00;0.02;13.49;;;;;1.90;1.00;;;;;;2275022;61;1139;-81
2022/03/07 03:11:33;470679.00;1.57;811.36;0.00;0.00;0.62;;;;;1.80;1.00;;;;;;2274789;61;1082;-81
2022/03/07 03:14:00;533340.00;1.78;919.25;0.00;0.00;0.62;;;;;1.60;1.00;;;;;;2274472;61;1330;-81
2022/03/07 03:16:27;588329.00;1.96;1014.07;0.00;0.00;0.62;;;;;1.40;1.00;;;;;;2274386;61;1131;-81
2022/03/07 03:18:54;809575.00;2.70;1397.83;0.00;0.00;0.62;;;;;1.50;1.00;;;;;;2274436;61;1094;-80
2022/03/07 03:21:21;791893.00;2.64;1366.99;0.00;0.00;0.62;;;;;1.40;1.00;;;;;;2274005;61;1242;-81
2022/03/07 03:23:48;610147.00;2.03;1051.74;0.00;0.00;0.62;;;;;1.60;1.00;;;;;;2273976;61;1947;-81
2022/03/07 03:26:17;601810.00;2.01;1037.35;0.00;0.00;0.62;;;;;1.50;1.00;;;;;;2274119;61;1158;-81
2022/03/07 03:28:43;701821.00;2.34;1210.40;0.00;0.00;0.62;;;;;1.50;1.00;;;;;;2273962;61;1155;-81
2022/03/07 03:31:11;618213.00;2.06;1065.68;0.00;0.00;0.62;;;;;1.50;1.00;;;;;;2274171;61;1134;-80
2022/03/07 03:33:38;841086.00;2.80;1452.87;0.00;0.00;0.62;;;;;1.50;1.00;;;;;;2273898;61;2172;-80
2022/03/07 03:36:06;738212.00;2.46;1273.57;0.00;0.00;0.62;;;;;1.30;1.00;;;;;;2273619;61;1258;-80
2022/03/07 03:38:33;596390.00;1.99;1027.99;0.00;0.00;0.62;;;;;1.20;1.00;;;;;;2273946;61;1250;-81
2022/03/07 03:41:00;767313.00;2.56;1324.18;39041.00;0.13;68.23;;;;;1.40;1.00;;;;;;2273972;61;1232;-80
2022/03/07 03:43:28;673780.00;2.25;1161.80;0.00;0.00;0.62;;;;;1.30;1.00;;;;;;2274614;61;2033;-81
2022/03/07 03:45:55;781072.00;2.60;1348.13;0.00;0.00;0.62;;;;;1.30;1.00;;;;;;2273805;61;1048;-80
2022/03/07 03:48:22;609014.00;2.03;1049.79;0.00;0.00;0.62;;;;;1.30;1.00;;;;;;2273871;61;1084;-79
2022/03/07 03:50:49;634753.00;2.12;1094.27;0.00;0.00;0.62;;;;;1.20;1.00;;;;;;2274291;61;1072;-80
2022/03/07 03:53:16;830364.00;2.77;1434.13;0.00;0.00;0.62;;;;;1.10;1.00;;;;;;2273676;61;1331;-80
2022/03/07 03:55:42;715640.00;2.39;1234.37;0.00;0.00;0.62;;;;;1.20;1.00;;;;;;2273248;61;1136;-81
2022/03/07 03:58:09;699484.00;2.33;1206.34;20528.00;0.07;36.18;;;;;0.90;1.00;;;;;;2273189;61;1175;-81
2022/03/07 04:00:37;641864.00;2.14;1106.56;0.00;0.00;0.62;;;;;1.20;1.00;;;;;;2273594;61;1086;-81
2022/03/07 04:03:04;603229.00;2.01;1039.80;0.00;0.00;0.62;;;;;1.30;1.00;;;;;;2274023;61;1214;-79
2022/03/07 04:05:31;742256.00;2.47;1280.60;0.00;0.00;0.62;;;;;1.10;1.00;;;;;;2274028;61;2081;-79
2022/03/07 04:07:58;651222.00;2.17;1122.75;0.00;0.00;0.62;;;;;1.40;1.00;;;;;;2273956;61;1226;-81
2022/03/07 04:10:25;579603.00;1.93;999.01;0.00;0.00;0.62;;;;;1.60;1.00;;;;;;2273958;61;1015;-81
2022/03/07 04:12:52;690557.00;2.30;1190.87;0.00;0.00;0.62;;;;;1.70;1.00;;;;;;2274059;61;1143;-81
2022/03/07 04:15:19;733029.00;2.44;1264.56;0.00;0.00;0.62;;;;;1.70;1.00;;;;;;2274021;61;1260;-80
2022/03/07 04:17:47;599419.00;2.00;1033.22;7203.00;0.02;13.10;;;;;1.50;1.00;;;;;;2273927;61;1215;-81
2022/03/07 04:20:14;118988264.00;396.63;68242760.00;0.00;0.00;0.62;;;;;1.50;1.00;;;;;;2273695;61;1229;-81
2022/03/07 04:22:41;760446.00;2.53;1312.23;0.00;0.00;0.62;;;;;1.10;1.00;;;;;;2265478;61;1128;-81
2022/03/07 04:25:09;540422.00;1.80;931.45;0.00;0.00;0.62;;;;;0.90;1.00;;;;;;2265524;61;2028;-81
2022/03/07 04:27:36;623532.00;2.08;1074.87;0.00;0.00;0.62;;;;;1.00;1.00;;;;;;2268614;61;1227;-80
2022/03/07 04:30:04;777378.00;2.59;1341.70;0.00;0.00;0.62;;;;;1.10;1.00;;;;;;2275979;61;1130;-80
2022/03/07 04:32:33;650041.00;2.17;1120.71;0.00;0.00;0.62;;;;;0.90;1.00;;;;;;2268274;61;1183;-81
2022/03/07 04:35:04;540832.00;1.80;932.16;0.00;0.00;0.62;;;;;1.20;1.00;;;;;;2265724;61;1350;-80
2022/03/07 04:37:31;756916.00;2.52;1306.09;0.00;0.00;0.62;;;;;1.30;1.00;;;;;;2265946;61;1226;-81
2022/03/07 04:39:59;726386.00;2.42;1253.03;0.00;0.00;0.62;;;;;1.30;1.00;;;;;;2265898;61;1162;-80
2022/03/07 04:42:26;560277.00;1.87;965.68;0.00;0.00;0.62;;;;;1.40;1.00;;;;;;2266229;61;1142;-80
2022/03/07 04:44:53;1151076.00;3.84;2002.01;30999.00;0.10;54.31;;;;;1.70;1.00;;;;;;2265731;61;1947;-81
2022/03/07 04:47:19;563535.00;1.88;971.30;0.00;0.00;0.62;;;;;1.80;1.00;;;;;;2265945;61;1161;-81
2022/03/07 04:49:46;447483.00;1.49;771.45;0.00;0.00;0.62;;;;;2.30;1.00;;;;;;2266096;61;1065;-81
2022/03/07 04:52:15;620339.00;2.07;1069.35;0.00;0.00;0.62;;;;;2.30;1.00;;;;;;2265813;61;1239;-79
2022/03/07 04:54:41;381467.00;1.27;657.95;0.00;0.00;0.62;;;;;2.40;1.00;;;;;;2265550;61;1254;-81
2022/03/07 04:57:08;544788.00;1.82;938.98;0.00;0.00;0.62;;;;;1.90;1.00;;;;;;2265730;61;1190;-81
2022/03/07 04:59:35;667735.00;2.23;1151.33;0.00;0.00;0.62;;;;;1.90;1.00;;;;;;2266392;61;1103;-80
2022/03/07 05:02:03;626086.00;2.09;1079.28;0.00;0.00;0.62;;;;;1.70;1.00;;;;;;2265844;61;1716;-80
2022/03/07 05:04:30;615462.00;2.05;1060.93;0.00;0.00;0.62;;;;;1.60;1.00;;;;;;2265626;61;1943;-79
2022/03/07 05:06:57;686498.00;2.29;1183.83;0.00;0.00;0.62;;;;;1.30;1.00;;;;;;2266039;61;1125;-79
2022/03/07 05:09:25;674215.00;2.25;1162.55;0.00;0.00;0.62;;;;;1.30;1.00;;;;;;2265833;61;1112;-80
2022/03/07 05:11:52;468106.00;1.56;806.93;0.00;0.00;0.62;;;;;1.70;1.00;;;;;;2265840;61;1097;-80
2022/03/07 05:14:19;538943.00;1.80;928.90;0.00;0.00;0.62;;;;;1.70;1.00;;;;;;2265472;61;1343;-80
2022/03/07 05:16:46;983080.00;3.28;1702.53;0.00;0.00;0.62;;;;;1.70;1.00;;;;;;2265515;61;1093;-80
2022/03/07 05:19:13;539097.00;1.80;929.17;0.00;0.00;0.62;;;;;1.70;1.00;;;;;;2265123;61;1093;-80
2022/03/07 05:21:40;1042074.00;3.47;1807.13;0.00;0.00;0.62;;;;;1.70;1.00;;;;;;2265482;61;1122;-80
2022/03/07 05:24:09;787490.00;2.62;1359.31;0.00;0.00;0.62;;;;;1.70;1.00;;;;;;2265448;61;2004;-79
2022/03/07 05:26:38;611370.00;2.04;1053.86;0.00;0.00;0.62;;;;;1.40;1.00;;;;;;2265427;61;1109;-80
2022/03/07 05:29:06;651818.00;2.17;1123.78;0.00;0.00;0.62;;;;;1.40;1.00;;;;;;2265318;61;1723;-80
2022/03/07 05:31:33;545883.00;1.82;940.86;0.00;0.00;0.62;;;;;1.50;1.00;;;;;;2264958;61;1127;-80
2022/03/07 05:34:00;587561.00;1.96;1012.75;0.00;0.00;0.62;;;;;1.50;1.00;;;;;;2265018;61;1414;-79
2022/03/07 05:36:27;508674.00;1.70;876.76;0.00;0.00;0.62;;;;;1.40;1.00;;;;;;2265201;61;1129;-79
2022/03/07 05:38:54;678416.00;2.26;1169.83;0.00;0.00;0.62;;;;;1.50;1.00;;;;;;2265580;61;1119;-80
2022/03/07 05:41:21;545567.00;1.82;940.32;0.00;0.00;0.62;;;;;1.50;1.00;;;;;;2267600;61;1186;-79
2022/03/07 05:43:50;555396.00;1.85;957.26;0.00;0.00;0.62;;;;;1.50;1.00;;;;;;2268553;61;1239;-79
2022/03/07 05:46:16;597203.00;1.99;1029.39;0.00;0.00;0.62;;;;;1.50;1.00;;;;;;2266850;61;2036;-79
2022/03/07 05:48:43;547932.00;1.83;944.39;0.00;0.00;0.62;;;;;1.60;1.00;;;;;;2266743;61;1109;-79
2022/03/07 05:51:10;699858.00;2.33;1206.99;0.00;0.00;0.62;;;;;1.50;1.00;;;;;;2265999;61;1080;-79
2022/03/07 05:53:37;683186.00;2.28;1178.09;0.00;0.00;0.62;;;;;1.50;1.00;;;;;;2265073;61;1345;-79
2022/03/07 05:56:04;647907.00;2.16;1117.02;31992.00;0.11;56.03;;;;;1.70;1.00;;;;;;2265697;61;1191;-79
2022/03/07 05:58:31;527404.00;1.76;909.02;0.00;0.00;0.62;;;;;1.80;1.00;;;;;;2274396;61;1167;-80
2022/03/07 06:01:00;692872.00;2.31;1194.88;0.00;0.00;0.62;;;;;1.90;1.00;;;;;;2275083;61;1175;-79
2022/03/07 06:03:26;591759.00;1.97;1019.99;0.00;0.00;0.62;;;;;1.70;1.00;;;;;;2267400;61;1332;-80
2022/03/07 06:05:53;787409.00;2.62;1359.17;0.00;0.00;0.62;;;;;1.40;1.00;;;;;;2275937;61;2315;-80
2022/03/07 06:08:20;673107.00;2.24;1160.63;0.00;0.00;0.62;;;;;1.20;1.00;;;;;;2275862;61;1077;-78
2022/03/07 06:10:47;715394.00;2.38;1233.94;18971.00;0.06;33.49;;;;;0.90;1.00;;;;;;2268563;61;1036;-80
2022/03/07 06:13:14;587591.00;1.96;1012.80;0.00;0.00;0.62;;;;;1.10;1.00;;;;;;2265914;61;1243;-79
2022/03/07 06:15:43;533111.00;1.78;918.85;0.00;0.00;0.62;;;;;1.00;1.00;;;;;;2266406;61;1128;-79
2022/03/07 06:18:12;754992.00;2.52;1302.74;0.00;0.00;0.62;;;;;1.10;1.00;;;;;;2266618;61;1151;-79
2022/03/07 06:20:39;563447.00;1.88;971.14;0.00;0.00;0.62;;;;;1.00;1.00;;;;;;2267397;61;1271;-79
2022/03/07 06:23:06;619197.00;2.06;1067.38;0.00;0.00;0.62;;;;;1.10;1.00;;;;;;2268221;61;1237;-79
2022/03/07 06:25:34;760245.00;2.53;1311.88;310.00;0.00;1.16;;;;;1.20;1.00;;;;;;2265640;61;2008;-79
2022/03/07 06:28:01;687349.00;2.29;1185.31;0.00;0.00;0.62;;;;;1.00;1.00;;;;;;2265287;61;1076;-78
2022/03/07 06:30:28;858816.00;2.86;1483.90;0.00;0.00;0.62;;;;;0.80;1.00;;;;;;2265391;61;1146;-77
2022/03/07 06:32:55;668135.00;2.23;1152.02;0.00;0.00;0.62;;;;;0.70;1.00;;;;;;2266245;61;1130;-79
2022/03/07 06:35:23;929430.00;3.10;1607.87;33364.00;0.11;58.41;;;;;0.80;1.00;;;;;;2265197;61;1356;-79
2022/03/07 06:37:51;706476.00;2.35;1218.47;0.00;0.00;0.62;;;;;0.80;1.00;;;;;;2264618;61;1168;-79
2022/03/07 06:40:20;764274.00;2.55;1318.89;0.00;0.00;0.62;;;;;1.00;1.00;;;;;;2265114;61;1119;-79
2022/03/07 06:42:47;558335.00;1.86;962.33;0.00;0.00;0.62;;;;;1.00;1.00;;;;;;2265093;61;1101;-79
2022/03/07 06:45:16;853168.00;2.84;1474.01;0.00;0.00;0.62;;;;;1.10;1.00;;;;;;2265382;61;2030;-80
2022/03/07 06:47:44;823560.00;2.75;1422.24;0.00;0.00;0.62;;;;;1.50;1.00;;;;;;2265526;61;1080;-80
2022/03/07 06:50:11;615885.00;2.05;1061.66;0.00;0.00;0.62;;;;;1.20;1.00;;;;;;2265384;61;1180;-79
2022/03/07 06:52:40;723178.00;2.41;1247.46;43044.00;0.14;75.15;;;;;1.30;1.00;;;;;;2265566;61;1467;-80
2022/03/07 06:55:08;633135.00;2.11;1091.47;0.00;0.00;0.62;;;;;1.50;1.00;;;;;;2265665;61;1324;-80
2022/03/07 06:57:34;949560.00;3.17;1643.34;33798.00;0.11;59.16;;;;;1.80;1.00;;;;;;2267653;61;1232;-80
2022/03/07 07:00:02;561754.00;1.87;968.23;0.00;0.00;0.62;;;;;2.00;1.00;;;;;;2268066;61;1139;-80
2022/03/07 07:02:29;562851.00;1.88;970.12;0.00;0.00;0.62;;;;;2.00;1.00;;;;;;2265559;61;1131;-80
2022/03/07 07:04:56;770561.00;2.57;1329.83;0.00;0.00;0.62;;;;;1.80;1.00;;;;;;2265587;61;1939;-79
2022/03/07 07:07:23;613978.00;2.05;1058.36;0.00;0.00;0.62;;;;;1.70;1.00;;;;;;2265065;61;1124;-80
2022/03/07 07:09:51;716448.00;2.39;1235.77;0.00;0.00;0.62;;;;;1.90;1.00;;;;;;2265679;61;1197;-80
2022/03/07 07:12:18;623738.00;2.08;1075.23;0.00;0.00;0.62;;;;;1.80;1.00;;;;;;2265794;61;1112;-79
2022/03/07 07:14:45;596143.00;1.99;1027.56;0.00;0.00;0.62;;;;;2.10;1.00;;;;;;2265625;61;1345;-79
2022/03/07 07:17:12;475954.00;1.59;820.43;0.00;0.00;0.62;;;;;2.70;1.00;;;;;;2265804;61;1143;-79
2022/03/07 07:19:39;525408.00;1.75;905.58;0.00;0.00;0.62;;;;;2.90;1.00;;;;;;2266754;61;1087;-80
2022/03/07 07:22:06;615183.00;2.05;1060.44;12973.00;0.04;23.10;;;;;3.20;1.00;;;;;;2266416;61;1239;-80
2022/03/07 07:24:33;650462.00;2.17;1121.44;0.00;0.00;0.62;;;;;2.90;1.00;;;;;;2265731;61;1943;-80
2022/03/07 07:27:01;604850.00;2.02;1042.60;0.00;0.00;0.62;;;;;3.10;1.00;;;;;;2266311;61;1142;-80
2022/03/07 07:29:28;725199.00;2.42;1250.96;0.00;0.00;0.62;;;;;2.90;1.00;;;;;;2266211;61;1137;-80
2022/03/07 07:31:55;585873.00;1.95;1009.83;0.00;0.00;0.62;;;;;2.90;1.00;;;;;;2266056;61;1101;-80
2022/03/07 07:34:24;871781.00;2.91;1506.61;39213.00;0.13;68.53;;;;;3.10;1.00;;;;;;2265798;61;1350;-80
2022/03/07 07:36:50;671855.00;2.24;1158.47;0.00;0.00;0.62;;;;;2.70;1.00;;;;;;2265784;61;1123;-80
2022/03/07 07:39:18;792142.00;2.64;1367.42;50250.00;0.17;87.62;;;;;2.90;1.00;;;;;;2265919;61;1145;-80
2022/03/07 07:41:45;640078.00;2.13;1103.47;0.00;0.00;0.62;;;;;2.90;1.00;;;;;;2266260;61;1164;-80
2022/03/07 07:44:15;667196.00;2.22;1150.40;0.00;0.00;0.62;;;;;3.10;1.00;;;;;;2265392;61;1284;-80
2022/03/07 07:46:43;613271.00;2.04;1057.14;0.00;0.00;0.62;;;;;3.40;1.00;;;;;;2265584;61;1967;-80
2022/03/07 07:49:10;594627.00;1.98;1024.94;0.00;0.00;0.62;;;;;3.20;1.00;;;;;;2265381;61;1171;-81
2022/03/07 07:51:37;461283.00;1.54;795.19;0.00;0.00;0.62;;;;;3.10;1.00;;;;;;2265467;61;1155;-80
2022/03/07 07:54:05;584274.00;1.95;1007.07;0.00;0.00;0.62;;;;;3.50;1.00;;;;;;2265394;61;1337;-80
2022/03/07 07:56:32;542525.00;1.81;935.07;0.00;0.00;0.62;;;;;4.30;1.00;;;;;;2265778;61;1139;-80
2022/03/07 07:58:59;625083.00;2.08;1077.55;0.00;0.00;0.62;;;;;4.60;1.00;;;;;;2266281;61;1207;-80
2022/03/07 08:01:29;656459.00;2.19;1131.81;74.00;0.00;0.75;;;;;4.10;1.00;;;;;;2266000;61;1123;-81
2022/03/07 08:03:56;511489.00;1.70;881.61;0.00;0.00;0.62;;;;;3.90;1.00;;;;;;2265617;61;1261;-80
2022/03/07 08:06:23;565603.00;1.89;974.86;0.00;0.00;0.62;;;;;3.50;1.00;;;;;;2265220;61;2022;-80
2022/03/07 08:08:50;652133.00;2.17;1124.33;0.00;0.00;0.62;;;;;3.50;1.00;;;;;;2265576;61;1266;-80
2022/03/07 08:11:17;710817.00;2.37;1226.00;0.00;0.00;0.62;;;;;3.40;1.00;;;;;;2265260;61;1274;-81
2022/03/07 08:13:44;557543.00;1.86;960.96;0.00;0.00;0.62;;;;;3.10;1.00;;;;;;2265435;61;1249;-80
2022/03/07 08:16:11;549019.00;1.83;946.27;0.00;0.00;0.62;;;;;3.30;1.00;;;;;;2265759;61;1141;-80
2022/03/07 08:18:39;425456.00;1.42;733.57;0.00;0.00;0.62;;;;;3.50;1.00;;;;;;2265562;61;2057;-81
2022/03/07 08:21:06;468928.00;1.56;808.35;0.00;0.00;0.62;;;;;4.00;1.00;;;;;;2265614;61;1126;-80
2022/03/07 08:23:33;602144.00;2.01;1037.92;0.00;0.00;0.62;;;;;3.60;1.00;;;;;;2264923;61;1358;-80
2022/03/07 08:26:00;720514.00;2.40;1242.83;0.00;0.00;0.62;;;;;3.80;1.00;;;;;;2265940;61;2025;-81
2022/03/07 08:28:26;451835.00;1.51;778.94;0.00;0.00;0.62;;;;;4.10;1.00;;;;;;2265613;61;1027;-82
2022/03/07 08:30:53;604243.00;2.01;1041.55;0.00;0.00;0.62;;;;;3.80;1.00;;;;;;2265825;61;1732;-81
2022/03/07 08:33:20;675981.00;2.25;1165.61;0.00;0.00;0.62;;;;;3.40;1.00;;;;;;2265804;61;1590;-81
2022/03/07 08:35:49;712587.00;2.38;1229.07;0.00;0.00;0.62;;;;;3.70;1.00;;;;;;2266302;61;1097;-81
2022/03/07 08:38:16;530745.00;1.77;914.78;0.00;0.00;0.62;;;;;3.90;1.00;;;;;;2266349;61;1061;-81
2022/03/07 08:40:43;547286.00;1.82;943.28;0.00;0.00;0.62;;;;;4.00;1.00;;;;;;2267070;61;1142;-81
2022/03/07 08:43:10;652033.00;2.17;1124.15;0.00;0.00;0.62;;;;;4.30;1.00;;;;;;2266468;61;1261;-81
2022/03/07 08:45:37;500552.00;1.67;862.77;0.00;0.00;0.62;;;;;4.10;1.00;;;;;;2266365;61;1952;-80
2022/03/07 08:48:04;737713.00;2.46;1272.70;1476.00;0.00;3.18;;;;;3.40;1.00;;;;;;2265723;61;2116;-80
2022/03/07 08:50:31;505360.00;1.68;871.05;0.00;0.00;0.62;;;;;3.60;1.00;;;;;;2265807;61;1174;-81
2022/03/07 08:52:59;570251.00;1.90;982.88;0.00;0.00;0.62;;;;;4.40;1.00;;;;;;2265818;61;1106;-81
2022/03/07 08:55:27;707470.00;2.36;1220.19;0.00;0.00;0.62;;;;;3.60;1.00;;;;;;2275466;61;1717;-80
2022/03/07 08:57:53;589409.00;1.96;1015.94;0.00;0.00;0.62;;;;;3.20;1.00;;;;;;2275866;61;1171;-82
2022/03/07 09:00:21;625613.00;2.09;1078.47;0.00;0.00;0.62;;;;;3.40;1.00;;;;;;2275814;61;1102;-80
2022/03/07 09:02:48;726045.00;2.42;1252.43;0.00;0.00;0.62;;;;;3.40;1.00;;;;;;2272193;61;1007;-80
2022/03/07 09:05:15;716195.00;2.39;1235.33;0.00;0.00;0.62;;;;;3.80;1.00;;;;;;2267811;61;1923;-81
2022/03/07 09:07:42;652449.00;2.17;1124.87;0.00;0.00;0.62;;;;;3.60;1.00;;;;;;2265189;61;1267;-80
2022/03/07 09:10:11;585553.00;1.95;1009.28;0.00;0.00;0.62;;;;;3.50;1.00;;;;;;2265465;61;1142;-80
2022/03/07 09:12:38;641163.00;2.14;1105.35;0.00;0.00;0.62;;;;;3.80;1.00;;;;;;2265585;61;1038;-80
2022/03/07 09:15:07;550847.00;1.84;949.42;0.00;0.00;0.62;;;;;4.00;1.00;;;;;;2265451;61;1329;-81
2022/03/07 09:17:34;425990.00;1.42;734.49;0.00;0.00;0.62;;;;;3.60;1.00;;;;;;2266228;61;2323;-85
2022/03/07 09:20:01;761841.00;2.54;1314.65;0.00;0.00;0.62;;;;;3.20;1.00;;;;;;2270138;61;1158;-84
2022/03/07 09:22:29;619664.00;2.07;1068.19;0.00;0.00;0.62;;;;;3.00;1.00;;;;;;2271281;61;1112;-84
2022/03/07 09:24:57;671378.00;2.24;1157.64;0.00;0.00;0.62;;;;;3.30;1.00;;;;;;2273459;61;1603;-83
2022/03/07 09:27:26;621135.00;2.07;1070.73;10401.00;0.03;18.64;;;;;3.40;1.00;;;;;;2275771;61;1942;-84
2022/03/07 09:29:54;1210841.00;4.04;2109.83;111206.00;0.37;192.91;;;;;3.20;1.00;;;;;;2275368;61;1143;-86
2022/03/07 09:32:24;933262.00;3.11;1614.62;147000.00;0.49;254.64;;;;;3.10;1.00;;;;;;2273881;61;1351;-84
2022/03/07 09:34:51;726525.00;2.42;1253.27;21749.00;0.07;38.30;;;;;3.00;1.00;;;;;;2270923;61;1277;-85
2022/03/07 09:37:18;1136253.00;3.79;1975.38;35492.00;0.12;62.09;;;;;3.30;1.00;;;;;;2271300;61;1067;-85
2022/03/07 09:39:45;1346945.00;4.49;2358.28;21238.00;0.07;37.41;;;;;3.40;1.00;;;;;;2271388;61;1434;-85
2022/03/07 09:42:12;610846.00;2.04;1052.95;0.00;0.00;0.62;;;;;3.60;1.00;;;;;;2273393;61;1079;-85
2022/03/07 09:44:41;654075.00;2.18;1127.69;0.00;0.00;0.62;;;;;4.30;1.00;;;;;;2270515;61;1884;-85
2022/03/07 09:47:10;567454.00;1.89;978.06;0.00;0.00;0.62;;;;;4.10;1.00;;;;;;2273730;61;1925;-85
2022/03/07 09:49:38;1327158.00;4.42;2321.89;42409.00;0.14;74.06;;;;;3.80;1.00;;;;;;2275318;61;1570;-86
2022/03/07 09:52:05;1634271.00;5.45;2898.42;110829.00;0.37;192.26;;;;;3.60;1.00;;;;;;2276720;61;1659;-86
2022/03/07 09:54:32;715943.00;2.39;1234.90;0.00;0.00;0.62;;;;;4.10;1.00;;;;;;2276763;61;1261;-85
2022/03/07 09:56:59;648104.00;2.16;1117.36;0.00;0.00;0.62;;;;;4.30;1.00;;;;;;2272956;61;1143;-85
2022/03/07 09:59:27;585939.00;1.95;1009.95;0.00;0.00;0.62;;;;;4.60;1.00;;;;;;2272800;61;1050;-85
2022/03/07 10:02:03;666536.00;2.22;1149.26;0.00;0.00;0.62;;;;;5.00;1.00;;;;;;2270582;61;1532;-83
2022/03/07 10:04:31;768303.00;2.56;1325.90;0.00;0.00;0.62;;;;;4.30;1.00;;;;;;2271464;61;2177;-83
2022/03/07 10:07:02;566190.00;1.89;975.88;0.00;0.00;0.62;;;;;4.10;1.00;;;;;;2270938;61;1927;-84
2022/03/07 10:09:30;1521651.00;5.07;2683.93;123098.00;0.41;213.43;;;;;4.10;1.00;;;;;;2271512;61;2102;-85
2022/03/07 10:12:00;2150393.00;7.17;3937.84;196622.00;0.66;340.11;;;;;4.40;1.00;;;;;;2272038;61;1139;-84
2022/03/07 10:14:41;1659280.00;5.53;2946.58;56341.00;0.19;98.15;;;;;4.20;1.00;;;;;;2272370;61;1450;-84
2022/03/07 10:17:19;1530927.00;5.10;2701.45;136211.00;0.45;236.04;;;;;4.40;1.00;;;;;;2270915;61;1112;-84
2022/03/07 10:19:47;959004.00;3.20;1660.00;90613.00;0.30;157.37;;;;;4.00;1.00;;;;;;2270877;61;1219;-85
2022/03/07 10:22:19;681827.00;2.27;1175.74;94399.00;0.31;163.90;;;;;4.00;1.00;;;;;;2271126;61;1148;-84
2022/03/07 10:24:46;408170.00;1.36;703.85;0.00;0.00;0.62;;;;;4.20;1.00;;;;;;2270732;61;1270;-85
2022/03/07 10:27:25;671220.00;2.24;1157.37;0.00;0.00;0.62;;;;;4.20;1.00;;;;;;2270866;61;1938;-85
2022/03/07 10:29:52;691666.00;2.31;1192.79;0.00;0.00;0.62;;;;;3.90;1.00;;;;;;2271544;61;1227;-85
2022/03/07 10:32:23;478697.00;1.60;825.16;0.00;0.00;0.62;;;;;4.00;1.00;;;;;;2272611;61;2367;-85
2022/03/07 10:34:50;608154.00;2.03;1048.30;0.00;0.00;0.62;;;;;4.90;1.00;;;;;;2273031;61;2222;-85
2022/03/07 10:37:17;494131.00;1.65;851.72;0.00;0.00;0.62;;;;;5.10;1.00;;;;;;2273711;61;1091;-84
2022/03/07 10:39:52;557259.00;1.86;960.47;0.00;0.00;0.62;;;;;5.20;1.00;;;;;;2271925;61;1194;-84
2022/03/07 10:42:20;1988017.00;6.63;3599.75;143237.00;0.48;248.15;;;;;4.80;1.00;;;;;;2272805;61;1028;-85
2022/03/07 10:44:48;1691068.00;5.64;3008.08;147961.00;0.49;256.29;;;;;4.70;1.00;;;;;;2271542;61;1352;-85
2022/03/07 10:47:17;1070477.00;3.57;1857.71;148669.00;0.50;257.51;;;;;4.80;1.00;;;;;;2270785;61;2041;-84
2022/03/07 10:49:52;756651.00;2.52;1305.62;96607.00;0.32;167.71;;;;;4.50;1.00;;;;;;2270962;61;1159;-83
2022/03/07 10:52:19;695424.00;2.32;1199.30;104556.00;0.35;181.44;;;;;4.20;1.00;;;;;;2270984;61;1424;-84
2022/03/07 10:54:49;696688.00;2.32;1201.50;84028.00;0.28;145.99;;;;;4.30;1.00;;;;;;2271554;61;1643;-85
2022/03/07 10:57:17;823749.00;2.75;1422.57;19705.00;0.07;34.76;;;;;4.80;1.00;;;;;;2270881;61;1112;-84
2022/03/07 10:59:45;616706.00;2.06;1063.07;0.00;0.00;0.62;;;;;4.70;1.00;;;;;;2271765;61;1186;-85
2022/03/07 11:02:16;693432.00;2.31;1195.85;0.00;0.00;0.62;;;;;4.90;1.00;;;;;;2271060;61;1075;-85
2022/03/07 11:04:45;597177.00;1.99;1029.35;0.00;0.00;0.62;;;;;5.00;1.00;;;;;;2270886;61;1362;-84
2022/03/07 11:07:13;593367.00;1.98;1022.77;0.00;0.00;0.62;;;;;5.30;1.00;;;;;;2270499;61;1990;-85
2022/03/07 11:09:41;646944.00;2.16;1115.35;0.00;0.00;0.62;;;;;4.90;1.00;;;;;;2270493;61;1127;-85
2022/03/07 11:12:12;525831.00;1.75;906.31;0.00;0.00;0.62;;;;;4.70;1.00;;;;;;2270255;61;1156;-84
2022/03/07 11:14:40;1012576.00;3.38;1754.76;39689.00;0.13;69.35;;;;;4.90;1.00;;;;;;2271865;61;1378;-85
2022/03/07 11:17:13;1417472.00;4.72;2488.77;107949.00;0.36;187.29;;;;;5.10;1.00;;;;;;2271226;61;1126;-85
2022/03/07 11:19:41;2206017.00;7.35;4056.28;333645.00;1.11;575.75;;;;;5.60;1.00;;;;;;2270598;61;1100;-84
2022/03/07 11:22:09;1697278.00;5.66;3020.14;189510.00;0.63;327.86;;;;;5.40;1.00;;;;;;2271168;61;1139;-84
2022/03/07 11:24:38;897682.00;2.99;1552.05;85760.00;0.29;148.99;;;;;5.10;1.00;;;;;;2270804;61;1368;-84
2022/03/07 11:27:06;795372.00;2.65;1373.05;26489.00;0.09;46.51;;;;;5.20;1.00;;;;;;2273428;61;1998;-85
2022/03/07 11:29:35;677343.00;2.26;1167.97;0.00;0.00;0.62;;;;;5.50;1.00;;;;;;2270659;61;1119;-85
2022/03/07 11:32:03;537207.00;1.79;925.91;0.00;0.00;0.62;;;;;4.90;1.00;;;;;;2271828;61;1076;-84
2022/03/07 11:34:30;501528.00;1.67;864.45;0.00;0.00;0.62;;;;;5.40;1.00;;;;;;2269994;61;1386;-85
2022/03/07 11:36:59;577108.00;1.92;994.71;0.00;0.00;0.62;;;;;5.10;1.00;;;;;;2274445;61;1183;-85
2022/03/07 11:39:35;417679.00;1.39;720.20;0.00;0.00;0.62;;;;;5.80;1.00;;;;;;2272772;61;1539;-83
2022/03/07 11:42:15;515827.00;1.72;889.08;0.00;0.00;0.62;;;;;5.70;1.00;;;;;;2271367;61;1135;-83
2022/03/07 11:44:43;583253.00;1.94;1005.31;0.00;0.00;0.62;;;;;5.40;1.00;;;;;;2269356;61;1458;-85
2022/03/07 11:47:12;1409923.00;4.70;2474.74;61290.00;0.20;106.71;;;;;5.10;1.00;;;;;;2270066;61;1917;-86
2022/03/07 11:49:40;2376512.00;7.92;4428.27;158496.00;0.53;274.45;;;;;4.90;1.00;;;;;;2270586;61;1118;-86
2022/03/07 11:52:09;119084752.00;396.95;68409080.00;151117.00;0.50;261.73;;;;;4.80;1.00;;;;;;2270606;61;1120;-84
2022/03/07 11:54:49;703540.00;2.35;1213.38;93171.00;0.31;161.78;;;;;5.10;1.00;;;;;;2270135;61;1238;-85
2022/03/07 11:57:17;768207.00;2.56;1325.73;0.00;0.00;0.62;;;;;5.10;1.00;;;;;;2269518;61;1262;-85
2022/03/07 11:59:45;565213.00;1.88;974.19;0.00;0.00;0.62;;;;;5.20;1.00;;;;;;2270367;61;1193;-83
2022/03/07 12:02:12;586194.00;1.95;1010.39;0.00;0.00;0.62;;;;;5.40;1.00;;;;;;2271534;61;1076;-83
2022/03/07 12:04:41;488541.00;1.63;842.10;0.00;0.00;0.62;;;;;5.60;1.00;;;;;;2272198;61;1260;-85
2022/03/07 12:07:08;599644.00;2.00;1033.61;0.00;0.00;0.62;;;;;5.50;1.00;;;;;;2272611;61;1926;-86
2022/03/07 12:09:38;543368.00;1.81;936.53;0.00;0.00;0.62;;;;;5.50;1.00;;;;;;2272378;61;2037;-85
2022/03/07 12:12:07;586054.00;1.95;1010.15;0.00;0.00;0.62;;;;;5.50;1.00;;;;;;2270895;61;1118;-85
2022/03/07 12:14:37;604413.00;2.01;1041.84;0.00;0.00;0.62;;;;;5.60;1.00;;;;;;2270871;61;1385;-85